La Veta, CO

7:23 AM MST on February 07, 2016 (GMT -0700)
La Veta Pass

Weather History for KVTP - September, 2013

Change the Weather History Date:

Friday, September 6, 2013

  Actual Average (KTAD) Record (KTAD)
Temperature  
Mean Temperature 62 °F 68 °F  
Max Temperature 75 °F 83 °F 96 °F (1959)
Min Temperature 50 °F 53 °F 41 °F (2008)
Degree Days  
Heating Degree Days 2 1  
Month to date heating degree days 6  
Since 1 July heating degree days 16  
Cooling Degree Days 0 4  
Month to date cooling degree days 27  
Year to date cooling degree days 669  
Growing Degree Days 12 (Base 50)    
Moisture  
Dew Point 33 °F    
Average Humidity 37    
Maximum Humidity 50    
Minimum Humidity 21    
Precipitation  
Precipitation 0.00 in 0.04 in 0.58 in (1993)
Month to date precipitation 0.31  
Year to date precipitation 10.77  
Sea Level Pressure  
Sea Level Pressure 30.59 in    
Wind  
Wind Speed 9 mph (SW)    
Max Wind Speed 16 mph    
Max Gust Speed 26 mph    
Visibility 10 miles    
Events Thunderstorm    
T = Trace of Precipitation, MM = Missing Value Source: NWS Daily Summary

Daily Weather History Graph

Daily Weather History Graph

Search for Another Location

Airport or City:

Trip Planner

Search our weather history database for the weather conditions in past years. The results will help you decide how hot, cold, wet, or windy it might be!

Date:

Astronomy

Sep. 06, 2013 Rise Set
Actual Time 6:35 AM MDT 7:21 PM MDT
Civil Twilight 6:08 AM MDT 7:48 PM MDT
Nautical Twilight 5:37 AM MDT 8:19 PM MDT
Astronomical Twilight 5:05 AM MDT 8:51 PM MDT
Moon 7:47 AM MDT (9/6) 7:50 PM MDT (9/6)
Length of Visible Light 13h 39m
Length of Day
12h 46m
New Moon, 2% of the Moon is Illuminated
Sep 6
New Moon
Sep 12
First Quarter
Sep 19
Full
Sep 26
Last Quarter
Oct 4
New

Hourly Weather History & Observations

Time (MDT) Temp. Dew Point Humidity Pressure Visibility Wind Dir Wind Speed Gust Speed Precip Events Conditions
12:14 AM 57.2 °F 33.8 °F 41% 30.63 in 10.0 mi SW 10.4 mph 19.6 mph N/A   Clear
12:35 AM 57.2 °F 32.0 °F 38% 30.63 in 10.0 mi WSW 9.2 mph 20.7 mph N/A   Clear
12:54 AM 55.4 °F 32.0 °F 41% 30.63 in 10.0 mi SW 12.7 mph 18.4 mph N/A   Clear
1:15 AM 55.4 °F 32.0 °F 41% 30.63 in 10.0 mi SW 15.0 mph 20.7 mph N/A   Clear
1:35 AM 55.4 °F 32.0 °F 41% 30.62 in 10.0 mi SW 11.5 mph 25.3 mph N/A   Clear
1:51 AM 55.4 °F 32.0 °F 41% 30.61 in 10.0 mi SW 12.7 mph 19.6 mph N/A   Clear
2:14 AM 53.6 °F 32.0 °F 44% 30.61 in 10.0 mi SW 12.7 mph 18.4 mph N/A   Clear
2:33 AM 53.6 °F 32.0 °F 44% 30.61 in 10.0 mi SW 12.7 mph 20.7 mph N/A   Clear
2:54 AM 53.6 °F 32.0 °F 44% 30.61 in 10.0 mi SW 16.1 mph 26.5 mph N/A   Clear
3:15 AM 53.6 °F 32.0 °F 44% 30.60 in 10.0 mi SW 13.8 mph 25.3 mph N/A   Clear
3:35 AM 53.6 °F 32.0 °F 44% 30.60 in 10.0 mi WSW 12.7 mph 23.0 mph N/A   Clear
3:54 AM 51.8 °F 32.0 °F 47% 30.60 in 10.0 mi SW 10.4 mph 18.4 mph N/A   Clear
4:15 AM 51.8 °F 32.0 °F 47% 30.59 in 10.0 mi SW 9.2 mph 19.6 mph N/A   Clear
4:34 AM 51.8 °F 32.0 °F 47% 30.60 in 10.0 mi SW 8.1 mph - N/A   Clear
4:55 AM 50.0 °F 32.0 °F 50% 30.59 in 10.0 mi WSW 9.2 mph 17.3 mph N/A   Clear
5:14 AM 50.0 °F 32.0 °F 50% 30.60 in 10.0 mi WSW 9.2 mph - N/A   Clear
5:34 AM 50.0 °F 32.0 °F 50% 30.60 in 10.0 mi SW 6.9 mph - N/A   Clear
5:55 AM 50.0 °F 32.0 °F 50% 30.60 in 10.0 mi West 6.9 mph - N/A   Clear
6:14 AM 50.0 °F 32.0 °F 50% 30.60 in 10.0 mi WSW 6.9 mph - N/A   Clear
6:35 AM 50.0 °F 32.0 °F 50% 30.61 in 10.0 mi WSW 6.9 mph - N/A   Clear
6:55 AM 50.0 °F 32.0 °F 50% 30.61 in 10.0 mi WSW 9.2 mph - N/A   Clear
7:15 AM 50.0 °F 32.0 °F 50% 30.61 in 10.0 mi WSW 8.1 mph - N/A   Clear
7:35 AM 51.8 °F 33.8 °F 50% 30.61 in 10.0 mi WSW 6.9 mph - N/A   Clear
7:54 AM 51.8 °F 32.0 °F 47% 30.62 in 10.0 mi WSW 5.8 mph - N/A   Clear
8:15 AM 53.6 °F 33.8 °F 47% 30.63 in 10.0 mi WSW 6.9 mph - N/A   Clear
8:35 AM 53.6 °F 33.8 °F 47% 30.63 in 10.0 mi West 5.8 mph - N/A   Clear
8:54 AM 55.4 °F 33.8 °F 44% 30.63 in 10.0 mi West 8.1 mph - N/A   Clear
9:14 AM 57.2 °F 35.6 °F 44% 30.63 in 10.0 mi West 5.8 mph - N/A   Clear
9:35 AM 59.0 °F 35.6 °F 42% 30.63 in 10.0 mi West 5.8 mph - N/A   Clear
9:54 AM 60.8 °F 33.8 °F 36% 30.63 in 10.0 mi WSW 5.8 mph - N/A Thunderstorm Clear
10:15 AM 62.6 °F 35.6 °F 37% 30.63 in 10.0 mi West 5.8 mph - N/A   Clear
10:34 AM 62.6 °F 33.8 °F 34% 30.63 in 10.0 mi West 4.6 mph - N/A   Clear
10:55 AM 64.4 °F 35.6 °F 34% 30.63 in 10.0 mi West 3.5 mph - N/A   Clear
11:14 AM 66.2 °F 35.6 °F 32% 30.63 in 10.0 mi West 3.5 mph - N/A   Clear
11:35 AM 66.2 °F 33.8 °F 30% 30.63 in 10.0 mi Calm Calm - N/A   Clear
11:55 AM 68.0 °F 35.6 °F 30% 30.62 in 10.0 mi NE 3.5 mph - N/A   Clear
12:15 PM 71.6 °F 35.6 °F 27% 30.61 in 10.0 mi ENE 9.2 mph - N/A   Clear
12:34 PM 75.2 °F 35.6 °F 24% 30.61 in 10.0 mi ENE 8.1 mph - N/A   Clear
12:55 PM 75.2 °F 35.6 °F 24% 30.61 in 10.0 mi ENE 11.5 mph 16.1 mph N/A   Clear
1:14 PM 75.2 °F 35.6 °F 24% 30.60 in 10.0 mi East 10.4 mph 16.1 mph N/A   Clear
1:35 PM 75.2 °F 37.4 °F 25% 30.60 in 10.0 mi East 5.8 mph - N/A   Clear
1:53 PM 75.2 °F 35.6 °F 24% 30.60 in 10.0 mi ENE 6.9 mph 16.1 mph N/A   Clear
2:15 PM 75.2 °F 32.0 °F 21% 30.58 in 10.0 mi East 11.5 mph 17.3 mph N/A   Clear
2:34 PM 75.2 °F 33.8 °F 22% 30.58 in 10.0 mi ENE 9.2 mph - N/A   Clear
2:54 PM 75.2 °F 33.8 °F 22% 30.57 in 10.0 mi ENE 11.5 mph 18.4 mph N/A Thunderstorm Thunderstorm
3:15 PM 75.2 °F 35.6 °F 24% 30.56 in 10.0 mi East 9.2 mph - N/A   Clear
3:34 PM 75.2 °F 35.6 °F 24% 30.56 in 10.0 mi ENE 8.1 mph - N/A   Clear
3:54 PM 73.4 °F 35.6 °F 25% 30.55 in 10.0 mi NE 4.6 mph - N/A   Clear
4:14 PM 71.6 °F 35.6 °F 27% 30.54 in 10.0 mi East 9.2 mph - N/A   Clear
4:35 PM 69.8 °F 33.8 °F 27% 30.54 in 10.0 mi NE 9.2 mph 18.4 mph N/A   Clear
4:55 PM 69.8 °F 33.8 °F 27% 30.54 in 10.0 mi ENE 5.8 mph - N/A   Clear
5:15 PM 68.0 °F 33.8 °F 28% 30.54 in 10.0 mi ENE 11.5 mph 16.1 mph N/A   Clear
5:35 PM 68.0 °F 33.8 °F 28% 30.54 in 10.0 mi East 8.1 mph - N/A   Clear
5:53 PM 64.4 °F 33.8 °F 32% 30.53 in 10.0 mi ENE 8.1 mph 16.1 mph N/A   Clear
6:14 PM 62.6 °F 32.0 °F 32% 30.53 in 10.0 mi East 10.4 mph - N/A   Clear
6:35 PM 62.6 °F 32.0 °F 32% 30.52 in 10.0 mi ENE 10.4 mph - N/A   Clear
6:55 PM 62.6 °F 33.8 °F 34% 30.52 in 10.0 mi ENE 11.5 mph - N/A   Clear
7:15 PM 62.6 °F 33.8 °F 34% 30.52 in 10.0 mi East 9.2 mph - N/A   Clear
7:34 PM 60.8 °F 33.8 °F 36% 30.53 in 10.0 mi East 3.5 mph - N/A   Clear
7:54 PM 62.6 °F 32.0 °F 32% 30.53 in 10.0 mi South 4.6 mph - N/A   Clear
8:15 PM 60.8 °F 32.0 °F 34% 30.54 in 10.0 mi South 9.2 mph - N/A   Clear
8:34 PM 60.8 °F 32.0 °F 34% 30.54 in 10.0 mi South 9.2 mph - N/A   Clear
8:55 PM 60.8 °F 32.0 °F 34% 30.54 in 10.0 mi South 8.1 mph - N/A   Clear
9:14 PM 59.0 °F 32.0 °F 36% 30.55 in 10.0 mi SSW 9.2 mph - N/A   Clear
9:33 PM 59.0 °F 32.0 °F 36% 30.55 in 10.0 mi SW 3.5 mph - N/A   Clear
9:55 PM 60.8 °F 32.0 °F 34% 30.55 in 10.0 mi SW 4.6 mph - N/A   Clear
10:15 PM 60.8 °F 32.0 °F 34% 30.55 in 10.0 mi SW 3.5 mph - N/A   Clear
10:34 PM 59.0 °F 32.0 °F 36% 30.55 in 10.0 mi WSW 4.6 mph - N/A   Clear
10:54 PM 59.0 °F 32.0 °F 36% 30.55 in 10.0 mi WSW 8.1 mph - N/A   Clear
11:15 PM 59.0 °F 32.0 °F 36% 30.55 in 10.0 mi SW 9.2 mph 16.1 mph N/A   Clear
11:34 PM 59.0 °F 32.0 °F 36% 30.55 in 10.0 mi SW 9.2 mph 16.1 mph N/A   Clear
11:55 PM 57.2 °F 32.0 °F 38% 30.56 in 10.0 mi SW 8.1 mph 16.1 mph N/A   Clear